Weather History for Osceola Municipal, IA

Change the Weather History Date:

Saturday, January 19, 2013

  Actual Average (KLWD) Record (KLWD)
Temperature  
Mean Temperature 39 °F 24 °F  
Max Temperature 55 °F 33 °F 56 °F (2013)
Min Temperature 21 °F 15 °F -17 °F (1985)
Degree Days  
Heating Degree Days 26 41  
Month to date heating degree days 779  
Since 1 July heating degree days 3208  
Cooling Degree Days 0 0  
Month to date cooling degree days 0  
Year to date cooling degree days 0  
Moisture  
Dew Point 28 °F    
Average Humidity 57    
Maximum Humidity 79    
Minimum Humidity 34    
Precipitation  
Precipitation 0.00 in 0.02 in 0.40 in (1963)
Month to date precipitation 0.39  
Sea Level Pressure  
Sea Level Pressure 29.96 in    
Wind  
Wind Speed 15 mph (West)    
Max Wind Speed 23 mph    
Max Gust Speed 32 mph    
Visibility 10 miles    
Events      
T = Trace of Precipitation, MM = Missing Value Source: NWS Daily Summary

Daily Weather History Graph

Daily Weather History Graph

Search for Another Location

Airport:

Trip Planner

Search our weather history database for the weather conditions in past years. The results will help you decide how hot, cold, wet, or windy it might be!

Date:

Astronomy

Jan. 19, 2013 Rise Set
Actual Time 7:35 AM CST 5:16 PM CST
Civil Twilight 7:05 AM CST 5:46 PM CST
Nautical Twilight 6:31 AM CST 6:19 PM CST
Astronomical Twilight 5:58 AM CST 6:52 PM CST
Moon 11:43 AM CST (1/19) 1:09 AM CST (1/19)
Length of Visible Light 10h 40m
Length of Day
9h 40m
First Quarter, 57% of the Moon is Illuminated
Jan 19
First Quarter
Jan 26
Full
Feb 3
Last Quarter
Feb 10
New
Feb 17
First Quarter

Hourly Weather History & Observations

Time (CST) Temp. Windchill Dew Point Humidity Pressure Visibility Wind Dir Wind Speed Gust Speed Precip Events Conditions
12:15 AM 42.8 °F 35.8 °F 31.6 °F 65% 29.90 in 10.0 mi SSW 13.8 mph - N/A   Clear
12:35 AM 43.0 °F 36.0 °F 31.5 °F 64% 29.90 in 10.0 mi SSW 13.8 mph - N/A   Clear
12:55 AM 42.6 °F 35.2 °F 31.5 °F 65% 29.89 in 10.0 mi SSW 15.0 mph - N/A   Clear
1:15 AM 43.0 °F 35.4 °F 31.6 °F 64% 29.89 in 10.0 mi SSW 16.1 mph - N/A   Clear
1:35 AM 42.8 °F 35.8 °F 31.6 °F 65% 29.90 in 10.0 mi SSW 13.8 mph - N/A   Clear
1:55 AM 42.1 °F 35.2 °F 31.6 °F 67% 29.90 in 10.0 mi SSW 12.7 mph - N/A   Clear
2:15 AM 41.9 °F 34.6 °F 31.8 °F 67% 29.89 in 10.0 mi SSW 13.8 mph - N/A   Clear
2:35 AM 42.3 °F 34.8 °F 31.8 °F 67% 29.89 in 10.0 mi SSW 15.0 mph - N/A   Clear
2:55 AM 41.9 °F 35.0 °F 31.8 °F 67% 29.89 in 10.0 mi SSW 12.7 mph 18.4 mph N/A   Clear
3:15 AM 42.1 °F 34.5 °F 31.8 °F 67% 29.88 in 10.0 mi SSW 15.0 mph - N/A   Clear
3:35 AM 41.9 °F 34.6 °F 31.8 °F 67% 29.87 in 10.0 mi SSW 13.8 mph - N/A   Clear
3:55 AM 41.4 °F 33.6 °F 31.8 °F 69% 29.86 in 10.0 mi SSW 15.0 mph - N/A   Clear
4:15 AM 41.2 °F 33.4 °F 31.8 °F 69% 29.86 in 10.0 mi SSW 15.0 mph 19.6 mph N/A   Clear
4:35 AM 41.0 °F 33.9 °F 31.6 °F 69% 29.86 in 10.0 mi SW 12.7 mph - N/A   Clear
4:55 AM 40.5 °F 33.2 °F 31.6 °F 71% 29.86 in 10.0 mi SW 12.7 mph - N/A   Clear
5:15 AM 40.1 °F 32.0 °F 31.8 °F 72% 29.86 in 10.0 mi SSW 15.0 mph 19.6 mph N/A   Clear
5:35 AM 40.1 °F 32.4 °F 31.6 °F 72% 29.85 in 10.0 mi SSW 13.8 mph - N/A   Clear
5:55 AM 39.6 °F 31.7 °F 31.6 °F 73% 29.85 in 10.0 mi SW 13.8 mph - N/A   Clear
6:35 AM 37.4 °F 30.3 °F 31.1 °F 78% 29.86 in 10.0 mi SW 10.4 mph - N/A   Clear
6:37 AM 37.4 °F 30.3 °F 30.2 °F 75% 29.86 in 10.0 mi SW 10.4 mph - N/A   Clear
6:55 AM 37.4 °F 29.8 °F 31.1 °F 78% 29.85 in 10.0 mi SSW 11.5 mph - N/A   Clear
7:15 AM 37.4 °F 29.3 °F 31.3 °F 79% 29.85 in 10.0 mi SSW 12.7 mph - N/A   Clear
7:55 AM 38.5 °F 31.6 °F 31.6 °F 76% 29.85 in 10.0 mi SSW 10.4 mph - N/A   Clear
7:57 AM 39.2 °F 32.0 °F 30.2 °F 70% 29.85 in 10.0 mi SSW 11.5 mph 16.1 mph N/A   Clear
8:35 AM 38.5 °F 31.1 °F 32.0 °F 78% 29.86 in 10.0 mi SW 11.5 mph - N/A   Clear
9:55 AM 41.7 °F 35.2 °F 32.0 °F 68% 29.89 in 10.0 mi SW 11.5 mph - N/A   Clear
9:57 AM 42.8 °F 36.6 °F 32.0 °F 66% 29.89 in 10.0 mi SW 11.5 mph - N/A   Clear
10:15 AM 42.8 °F 35.1 °F 31.6 °F 65% 29.91 in 10.0 mi WSW 16.1 mph - N/A   Clear
10:35 AM 42.8 °F 35.8 °F 31.1 °F 63% 29.92 in 10.0 mi West 13.8 mph 17.3 mph N/A   Clear
11:15 AM 48.4 °F - 29.7 °F 48% 29.91 in 10.0 mi West 16.1 mph - N/A   Clear
11:35 AM 50.0 °F - 29.7 °F 46% 29.90 in 10.0 mi West 16.1 mph - N/A   Clear
11:55 AM 51.1 °F - 28.8 °F 42% 29.89 in 10.0 mi WSW 15.0 mph - N/A   Clear
12:15 PM 52.7 °F - 28.2 °F 39% 29.88 in 10.0 mi West 13.8 mph - N/A   Clear
12:35 PM 54.1 °F - 29.3 °F 39% 29.87 in 10.0 mi WSW 13.8 mph 20.7 mph N/A   Clear
12:55 PM 55.4 °F - 27.9 °F 35% 29.87 in 10.0 mi West 18.4 mph 21.9 mph N/A   Clear
1:15 PM 55.8 °F - 28.0 °F 35% 29.88 in 10.0 mi West 17.3 mph 26.5 mph N/A   Clear
1:35 PM 55.6 °F - 27.7 °F 34% 29.88 in 10.0 mi WNW 18.4 mph 27.6 mph N/A   Clear
1:55 PM 55.4 °F - 27.9 °F 35% 29.89 in 10.0 mi West 19.6 mph 25.3 mph N/A   Clear
2:15 PM 55.2 °F - 27.9 °F 35% 29.89 in 10.0 mi WNW 21.9 mph 26.5 mph N/A   Clear
2:35 PM 55.4 °F - 28.4 °F 36% 29.90 in 10.0 mi WNW 16.1 mph 23.0 mph N/A   Clear
2:55 PM 55.0 °F - 27.9 °F 35% 29.91 in 10.0 mi WNW 17.3 mph 24.2 mph N/A   Clear
3:15 PM 54.5 °F - 27.9 °F 36% 29.92 in 10.0 mi WNW 15.0 mph 23.0 mph N/A   Clear
3:35 PM 53.8 °F - 28.6 °F 38% 29.93 in 10.0 mi WNW 18.4 mph 23.0 mph N/A   Clear
3:55 PM 53.1 °F - 29.1 °F 40% 29.95 in 10.0 mi WNW 18.4 mph 24.2 mph N/A   Clear
4:15 PM 52.0 °F - 29.3 °F 42% 29.96 in 10.0 mi WNW 19.6 mph 23.0 mph N/A   Clear
4:35 PM 51.3 °F - 30.0 °F 44% 29.98 in 10.0 mi WNW 17.3 mph 24.2 mph N/A   Clear
4:55 PM 50.2 °F - 30.2 °F 46% 30.00 in 10.0 mi NW 15.0 mph 25.3 mph N/A   Clear
5:15 PM 48.4 °F - 30.6 °F 50% 30.02 in 10.0 mi WNW 19.6 mph 26.5 mph N/A   Clear
5:35 PM 47.3 °F - 30.9 °F 53% 30.03 in 10.0 mi WNW 16.1 mph 24.2 mph N/A   Clear
5:55 PM 45.5 °F 39.2 °F 31.1 °F 57% 30.04 in 10.0 mi WNW 13.8 mph 20.7 mph N/A   Clear
6:15 PM 45.0 °F 37.4 °F 31.1 °F 58% 30.04 in 10.0 mi WNW 18.4 mph - N/A   Clear
6:35 PM 43.3 °F 36.8 °F 31.1 °F 62% 30.06 in 10.0 mi WNW 12.7 mph 23.0 mph N/A   Clear
6:55 PM 43.0 °F 35.4 °F 31.3 °F 63% 30.06 in 10.0 mi WNW 16.1 mph 23.0 mph N/A   Clear
7:15 PM 42.8 °F 34.8 °F 31.1 °F 63% 30.08 in 10.0 mi WNW 17.3 mph 23.0 mph N/A   Clear
7:35 PM 41.9 °F 34.0 °F 30.7 °F 65% 30.09 in 10.0 mi WNW 16.1 mph 23.0 mph N/A   Clear
7:55 PM 41.9 °F 33.7 °F 30.6 °F 64% 30.10 in 10.0 mi NW 17.3 mph 24.2 mph N/A   Clear
8:15 PM 40.8 °F 30.9 °F 29.1 °F 63% 30.11 in 10.0 mi NW 23.0 mph 28.8 mph N/A   Clear
8:35 PM 39.6 °F 31.0 °F 28.8 °F 65% 30.12 in 7.0 mi NW 16.1 mph 25.3 mph N/A   Clear
8:55 PM 37.8 °F 26.8 °F 23.7 °F 57% 30.13 in 10.0 mi NW 23.0 mph 32.2 mph N/A   Clear
9:15 PM 36.0 °F 25.3 °F 14.9 °F 42% 30.15 in 10.0 mi WNW 19.6 mph 31.1 mph N/A   Clear
9:35 PM 34.5 °F 22.5 °F 9.7 °F 36% 30.16 in 10.0 mi NW 23.0 mph 32.2 mph N/A   Clear
9:55 PM 32.4 °F 20.6 °F 10.4 °F 40% 30.19 in 10.0 mi NW 19.6 mph 26.5 mph N/A   Clear
10:15 PM 30.9 °F 17.8 °F 13.3 °F 48% 30.20 in 10.0 mi NW 23.0 mph 26.5 mph N/A   Clear
10:35 PM 28.9 °F 18.2 °F 14.9 °F 56% 30.22 in 10.0 mi NW 13.8 mph 19.6 mph N/A   Clear
10:55 PM 27.3 °F 14.4 °F 16.0 °F 62% 30.23 in 10.0 mi NW 18.4 mph 21.9 mph N/A   Clear
11:15 PM 25.0 °F 10.9 °F 11.1 °F 56% 30.24 in 10.0 mi NW 19.6 mph 25.3 mph N/A   Clear
11:35 PM 23.2 °F 7.8 °F 11.3 °F 60% 30.25 in 10.0 mi NNW 21.9 mph 27.6 mph N/A   Clear
11:55 PM 21.9 °F 8.7 °F 11.5 °F 64% 30.26 in 10.0 mi NW 15.0 mph 24.2 mph N/A   Clear